createdAt,value
2023-02-03T00:03:34.529Z,101098.50
2023-02-03T00:08:34.744Z,101103.56
2023-02-03T00:13:34.503Z,101097.88
2023-02-03T00:18:33.536Z,101098.00
2023-02-03T00:23:32.977Z,101110.84
2023-02-03T00:28:33.233Z,101108.19
2023-02-03T00:33:33.844Z,101116.84
2023-02-03T00:38:33.785Z,101128.84
2023-02-03T00:43:34.018Z,101126.50
2023-02-03T00:48:32.812Z,101124.47
2023-02-03T00:53:31.651Z,101123.75
2023-02-03T00:58:30.397Z,101136.00
2023-02-03T01:03:30.566Z,101132.53
2023-02-03T01:08:29.319Z,101130.94
2023-02-03T01:13:28.042Z,101125.75
2023-02-03T01:18:26.744Z,101128.44
2023-02-03T01:23:26.943Z,101134.44
2023-02-03T01:28:25.708Z,101136.16
2023-02-03T01:33:24.658Z,101122.19
2023-02-03T01:38:23.446Z,101122.03
2023-02-03T01:43:35.436Z,101121.94
2023-02-03T01:48:35.736Z,101131.41
2023-02-03T01:53:35.271Z,101125.47
2023-02-03T01:58:40.959Z,101140.00
2023-02-03T02:03:44.217Z,101152.03
2023-02-03T02:08:47.250Z,101153.66
2023-02-03T02:13:49.505Z,101150.50
2023-02-03T02:19:02.085Z,101138.50
2023-02-03T02:24:36.737Z,101151.47
2023-02-03T02:30:14.419Z,101153.06
2023-02-03T02:35:22.108Z,101151.50
2023-02-03T02:40:31.268Z,101153.75
2023-02-03T02:45:35.584Z,101174.44
2023-02-03T02:50:41.681Z,101170.13
2023-02-03T02:55:44.662Z,101166.63
2023-02-03T03:00:45.748Z,101181.59
2023-02-03T03:05:52.210Z,101170.16
2023-02-03T03:10:57.005Z,101183.19
2023-02-03T03:15:58.067Z,101161.69
2023-02-03T03:21:06.132Z,101170.28
2023-02-03T03:26:11.342Z,101173.69
2023-02-03T03:31:10.336Z,101188.34
2023-02-03T03:36:19.340Z,101211.03
2023-02-03T03:41:26.585Z,101206.69
2023-02-03T03:46:29.916Z,101203.31
2023-02-03T03:51:36.011Z,101210.91
2023-02-03T03:56:40.580Z,101214.47
2023-02-03T04:01:40.752Z,101217.13
2023-02-03T04:06:41.560Z,101217.00
2023-02-03T04:11:57.446Z,101216.88
2023-02-03T04:16:56.202Z,101229.09
2023-02-03T04:21:56.500Z,101229.19
2023-02-03T04:26:55.229Z,101230.75
2023-02-03T04:31:54.014Z,101236.03
2023-02-03T04:36:52.818Z,101242.78
2023-02-03T04:41:53.295Z,101248.88
2023-02-03T04:46:52.194Z,101258.44
2023-02-03T04:51:51.186Z,101267.16
2023-02-03T04:56:49.943Z,101265.41
2023-02-03T05:01:50.086Z,101266.88
2023-02-03T05:06:49.137Z,101272.16
2023-02-03T05:11:47.888Z,101279.41
2023-02-03T05:16:46.834Z,101282.00
2023-02-03T05:21:47.004Z,101279.91
2023-02-03T05:26:45.752Z,101291.91
2023-02-03T05:31:44.473Z,101297.19
2023-02-03T05:36:43.224Z,101305.88
2023-02-03T05:41:58.269Z,101313.69
2023-02-03T05:46:59.169Z,101322.25
2023-02-03T05:51:58.138Z,101317.06
2023-02-03T05:56:58.315Z,101321.28
2023-02-03T06:01:57.204Z,101329.06
2023-02-03T06:06:56.035Z,101350.09
2023-02-03T06:11:54.865Z,101340.53
2023-02-03T06:16:55.136Z,101329.31
2023-02-03T06:21:53.845Z,101337.97
2023-02-03T06:26:52.649Z,101359.53
2023-02-03T06:31:51.819Z,101375.41
2023-02-03T06:36:52.109Z,101370.91
2023-02-03T06:41:51.867Z,101380.53
2023-02-03T06:46:51.387Z,101382.94
2023-02-03T06:51:52.464Z,101395.00
2023-02-03T06:56:51.371Z,101377.72
2023-02-03T07:01:50.199Z,101386.13
2023-02-03T07:06:48.942Z,101400.84
2023-02-03T07:11:49.087Z,101415.72
2023-02-03T07:16:47.840Z,101415.66
2023-02-03T07:21:46.520Z,101424.31
2023-02-03T07:26:45.183Z,101433.81
2023-02-03T07:31:45.695Z,101435.66
2023-02-03T07:36:44.509Z,101443.50
2023-02-03T07:41:43.365Z,101440.03
2023-02-03T07:46:45.083Z,101451.03
2023-02-03T07:51:45.373Z,101460.66
2023-02-03T07:56:44.859Z,101444.00
2023-02-03T08:02:28.131Z,101447.16
2023-02-03T08:07:28.762Z,101456.25
2023-02-03T08:12:43.943Z,101478.94
2023-02-03T08:17:44.674Z,101481.38
2023-02-03T08:22:57.398Z,101471.94
2023-02-03T08:27:56.521Z,101475.16
2023-02-03T08:32:55.562Z,101478.88
2023-02-03T08:37:55.986Z,101479.44
2023-02-03T08:42:55.004Z,101474.59
2023-02-03T08:47:54.012Z,101478.97
2023-02-03T08:52:52.903Z,101487.56
2023-02-03T08:57:53.514Z,101501.19
2023-02-03T09:02:52.377Z,101502.88
2023-02-03T09:07:56.494Z,101502.59
2023-02-03T09:13:04.316Z,101511.69
2023-02-03T09:18:03.271Z,101506.19
2023-02-03T09:23:02.491Z,101506.91
2023-02-03T09:28:04.743Z,101522.28
2023-02-03T09:33:04.439Z,101522.97
2023-02-03T09:38:19.965Z,101524.41
2023-02-03T09:43:46.644Z,101501.59
2023-02-03T09:48:49.523Z,101503.34
2023-02-03T09:53:53.305Z,101507.53
2023-02-03T09:58:53.326Z,101505.50
2023-02-03T10:03:58.641Z,101510.59
2023-02-03T10:09:15.159Z,101503.06
2023-02-03T10:14:29.736Z,101513.19
2023-02-03T10:19:40.398Z,101507.19
2023-02-03T10:24:45.085Z,101504.31
2023-02-03T10:29:45.734Z,101481.22
2023-02-03T10:34:48.502Z,101488.22
2023-02-03T10:39:49.561Z,101490.31
2023-02-03T10:45:07.734Z,101487.06
2023-02-03T10:50:09.054Z,101472.09
2023-02-03T10:55:11.491Z,101472.34
2023-02-03T11:00:24.623Z,101457.66
2023-02-03T11:05:26.595Z,101453.97
2023-02-03T11:10:36.158Z,101438.88
2023-02-03T11:15:36.585Z,101443.94
2023-02-03T11:20:38.178Z,101435.38
2023-02-03T11:25:37.147Z,101434.34
2023-02-03T11:30:39.613Z,101422.25
2023-02-03T11:35:40.231Z,101418.97
2023-02-03T11:40:41.945Z,101396.84
2023-02-03T11:45:44.870Z,101394.47
2023-02-03T11:50:50.814Z,101391.34
2023-02-03T11:56:18.516Z,101382.59
2023-02-03T12:01:29.843Z,101379.56
2023-02-03T12:06:57.460Z,101377.56
2023-02-03T12:12:21.749Z,101382.41
2023-02-03T12:17:57.609Z,101372.34
2023-02-03T12:23:07.364Z,101377.53
2023-02-03T12:28:32.501Z,101371.25
2023-02-03T12:33:40.750Z,101365.03
2023-02-03T12:38:45.272Z,101363.25
2023-02-03T12:43:50.312Z,101355.00
2023-02-03T12:48:59.977Z,101351.94
2023-02-03T12:54:04.879Z,101365.13
2023-02-03T12:59:09.468Z,101345.81
2023-02-03T13:04:22.140Z,101348.72
2023-02-03T13:09:30.092Z,101345.47
2023-02-03T13:14:34.364Z,101341.59
2023-02-03T13:19:42.480Z,101346.00
2023-02-03T13:24:49.406Z,101340.59
2023-02-03T13:36:00.042Z,101316.03
2023-02-03T13:41:30.379Z,101319.09
2023-02-03T13:46:34.370Z,101312.13
2023-02-03T13:51:37.254Z,101309.25
2023-02-03T13:56:37.187Z,101299.97
2023-02-03T14:07:47.214Z,101319.81
2023-02-03T14:13:06.562Z,101314.84
2023-02-03T14:18:42.302Z,101300.72
2023-02-03T14:24:24.181Z,101296.38
2023-02-03T14:29:30.468Z,101287.16
2023-02-03T14:34:58.357Z,101299.59
2023-02-03T14:40:48.332Z,101320.03
2023-02-03T14:46:35.141Z,101323.59
2023-02-03T14:57:48.243Z,101315.03
2023-02-03T15:03:25.622Z,101331.69
2023-02-03T15:08:49.876Z,101338.81
2023-02-03T15:14:00.807Z,101330.59
2023-02-03T15:19:33.455Z,101337.38
2023-02-03T15:24:47.083Z,101336.53
2023-02-03T15:29:46.510Z,101336.72
2023-02-03T15:35:00.885Z,101333.94
2023-02-03T15:40:20.851Z,101333.41
2023-02-03T15:45:52.032Z,101325.13
2023-02-03T15:51:53.031Z,101326.94
2023-02-03T15:57:22.060Z,101319.97
2023-02-03T16:02:34.629Z,101310.75
2023-02-03T16:07:33.621Z,101320.38
2023-02-03T16:12:36.243Z,101321.25
2023-02-03T16:17:37.332Z,101318.41
2023-02-03T16:22:39.855Z,101307.22
2023-02-03T16:27:40.293Z,101301.31
2023-02-03T16:32:57.906Z,101305.13
2023-02-03T16:38:14.968Z,101280.00
2023-02-03T16:43:34.725Z,101277.72
2023-02-03T16:48:51.295Z,101270.63
2023-02-03T16:53:50.914Z,101252.00
2023-02-03T16:58:56.398Z,101244.19
2023-02-03T17:03:57.355Z,101237.47
2023-02-03T17:08:58.906Z,101245.19
2023-02-03T17:14:05.863Z,101248.97
2023-02-03T17:19:06.227Z,101245.44
2023-02-03T17:24:07.795Z,101242.06
2023-02-03T17:29:11.009Z,101224.34
2023-02-03T17:34:10.330Z,101232.34
2023-02-03T17:55:03.504Z,101184.03
2023-02-03T18:00:04.579Z,101180.50
2023-02-03T18:05:11.625Z,101183.13
2023-02-03T18:10:11.292Z,101171.34
2023-02-03T18:15:21.437Z,101167.13
2023-02-03T18:20:23.281Z,101157.34
2023-02-03T18:25:22.527Z,101166.00
2023-02-03T18:30:23.053Z,101162.72
2023-02-03T18:35:22.322Z,101161.91
2023-02-03T18:40:21.553Z,101154.97
2023-02-03T18:45:23.670Z,101152.59
2023-02-03T18:50:24.447Z,101144.91
2023-02-03T18:55:24.274Z,101133.63
2023-02-03T19:00:23.420Z,101138.69
2023-02-03T19:05:24.115Z,101112.50
2023-02-03T19:10:23.733Z,101107.94
2023-02-03T19:15:23.755Z,101106.19
2023-02-03T19:20:25.096Z,101087.97
2023-02-03T19:25:27.011Z,101085.03
2023-02-03T19:30:26.457Z,101079.97
2023-02-03T19:35:27.299Z,101071.75
2023-02-03T19:40:26.735Z,101067.25
2023-02-03T19:45:27.259Z,101052.22
2023-02-03T19:50:28.106Z,101045.34
2023-02-03T19:55:31.056Z,101045.50
2023-02-03T20:00:30.871Z,101034.41
2023-02-03T20:05:31.896Z,101033.97
2023-02-03T20:10:32.707Z,101029.00
2023-02-03T20:15:35.095Z,101027.53
2023-02-03T20:20:41.854Z,101035.09
2023-02-03T20:25:41.009Z,101024.81
2023-02-03T20:30:43.349Z,101019.34
2023-02-03T20:35:45.167Z,101023.56
2023-02-03T20:40:45.014Z,101005.22
2023-02-03T20:45:44.620Z,101003.72
2023-02-03T20:50:47.468Z,101006.78
2023-02-03T20:55:46.914Z,100986.84
2023-02-03T21:00:46.418Z,100984.13
2023-02-03T21:05:46.765Z,100980.06
2023-02-03T21:10:48.088Z,100973.09
2023-02-03T21:15:47.348Z,100954.66
2023-02-03T21:20:51.100Z,100952.03
2023-02-03T21:25:50.706Z,100948.34
2023-02-03T21:30:49.937Z,100935.81
2023-02-03T21:35:52.403Z,100929.13
2023-02-03T21:41:07.161Z,100929.72
2023-02-03T21:46:17.084Z,100917.72
2023-02-03T21:51:23.977Z,100920.22
2023-02-03T21:56:25.224Z,100915.41
2023-02-03T22:01:26.309Z,100911.59
2023-02-03T22:06:32.542Z,100902.22
2023-02-03T22:11:33.348Z,100898.59
2023-02-03T22:16:32.411Z,100891.72
2023-02-03T22:21:35.982Z,100886.41
2023-02-03T22:26:39.548Z,100882.06
2023-02-03T22:31:39.039Z,100868.00
2023-02-03T22:36:45.770Z,100860.91
2023-02-03T22:41:50.365Z,100850.16
2023-02-03T22:46:56.248Z,100832.81
2023-02-03T22:52:01.560Z,100816.75
2023-02-03T22:57:02.788Z,100811.34
2023-02-03T23:02:02.263Z,100809.00
2023-02-03T23:07:02.863Z,100801.19
2023-02-03T23:12:02.392Z,100794.94
2023-02-03T23:17:04.260Z,100794.13
2023-02-03T23:22:06.278Z,100792.84
2023-02-03T23:27:08.958Z,100791.31
2023-02-03T23:32:11.079Z,100786.94
2023-02-03T23:37:13.250Z,100785.91
2023-02-03T23:42:12.674Z,100765.22
2023-02-03T23:47:11.924Z,100792.47
2023-02-03T23:52:12.635Z,100767.09
2023-02-03T23:57:12.014Z,100765.41
